Time;durP1;ratioP1;P1;durP2;ratioP2;P2;SDS_P1;SDS_P2;PMS_P1;PMS_P2;Temp;Humidity;BMP_temperature;BMP_pressure;BME280_temperature;BME280_humidity;BME280_pressure;Samples;Min_cycle;Max_cycle;Signal;HPM_P1;HPM_P2
2022/02/25 00:00:57;;;;;;;0.52;0.50;;;;;;;1.83;100.00;101538.72;5039073;28;20036;-90
2022/02/25 00:03:22;;;;;;;0.40;0.40;;;;;;;1.90;100.00;101555.06;5055717;28;20088;-88
2022/02/25 00:05:48;;;;;;;4.80;0.90;;;;;;;1.90;100.00;101555.06;5030875;28;20498;-92
2022/02/25 00:08:13;;;;;;;0.80;0.80;;;;;;;1.91;100.00;101546.19;5027780;28;20035;-90
2022/02/25 00:10:39;;;;;;;0.50;0.50;;;;;;;1.94;100.00;101545.97;5060484;28;20043;-89
2022/02/25 00:13:05;;;;;;;4.13;1.77;;;;;;;1.95;100.00;101531.75;5046848;28;20025;-88
2022/02/25 00:15:30;;;;;;;7.15;1.55;;;;;;;2.09;100.00;101522.88;5027460;28;20463;-91
2022/02/25 00:17:56;;;;;;;1.48;0.70;;;;;;;2.72;100.00;101585.00;5070931;28;20024;-91
2022/02/25 00:20:22;;;;;;;8.45;1.83;;;;;;;2.80;100.00;101593.28;5048113;28;20020;-88
2022/02/25 00:22:50;;;;;;;2.13;0.93;;;;;;;2.88;100.00;101590.94;5072634;28;20397;-87
2022/02/25 00:25:18;;;;;;;0.40;0.40;;;;;;;2.77;100.00;101577.56;5048563;28;20399;-90
2022/02/25 00:27:44;;;;;;;1.27;1.05;;;;;;;2.62;100.00;101568.84;5037794;28;20032;-89
2022/02/25 00:30:11;;;;;;;2.38;0.75;;;;;;;2.52;100.00;101567.78;5061431;28;20068;-89
2022/02/25 00:32:38;;;;;;;0.40;0.40;;;;;;;2.30;100.00;101579.84;5058053;28;20474;-91
2022/02/25 00:35:04;;;;;;;0.40;0.40;;;;;;;2.10;100.00;101572.34;5046944;28;20067;-87
2022/02/25 00:37:29;;;;;;;0.50;0.50;;;;;;;2.07;100.00;101589.31;5045468;28;20025;-90
2022/02/25 00:39:55;;;;;;;0.35;0.35;;;;;;;2.02;100.00;101604.66;5059474;28;20055;-86
2022/02/25 00:42:21;;;;;;;0.47;0.47;;;;;;;1.87;100.00;101587.09;5057998;28;20386;-89
2022/02/25 00:44:47;;;;;;;0.45;0.45;;;;;;;1.78;100.00;101587.69;5029917;28;20112;-90
2022/02/25 00:47:13;;;;;;;0.40;0.40;;;;;;;1.71;100.00;101596.03;5033448;28;20044;-89
2022/02/25 00:49:38;;;;;;;0.40;0.40;;;;;;;1.31;100.00;101548.19;5027071;28;20051;-90
2022/02/25 00:52:04;;;;;;;0.40;0.40;;;;;;;1.57;100.00;101595.22;5058363;28;20042;-87
2022/02/25 00:54:36;;;;;;;0.40;0.40;;;;;;;1.51;100.00;101599.97;5045756;28;20044;-91
2022/02/25 00:57:02;;;;;;;0.40;0.40;;;;;;;1.39;100.00;101589.28;5061185;28;20044;-92
2022/02/25 00:59:28;;;;;;;0.50;0.50;;;;;;;1.44;100.00;101611.88;5044689;28;20167;-90
2022/02/25 01:01:53;;;;;;;0.40;0.40;;;;;;;1.39;100.00;101608.66;5029577;28;20074;-91
2022/02/25 01:04:19;;;;;;;0.40;0.40;;;;;;;1.32;100.00;101596.75;5045236;28;20046;-90
2022/02/25 01:06:45;;;;;;;0.50;0.50;;;;;;;1.31;100.00;101605.66;5039895;28;20036;-86
2022/02/25 01:09:13;;;;;;;0.40;0.40;;;;;;;1.30;100.00;101596.00;5059939;28;20122;-90
2022/02/25 01:11:39;;;;;;;0.40;0.40;;;;;;;1.27;100.00;101594.41;5065887;28;20051;-89
2022/02/25 01:14:06;;;;;;;0.40;0.40;;;;;;;1.35;100.00;101606.28;5033471;28;20025;-89
2022/02/25 01:16:32;;;;;;;0.40;0.40;;;;;;;1.39;100.00;101608.66;5044792;28;20035;-89
2022/02/25 01:18:57;;;;;;;0.40;0.40;;;;;;;1.34;100.00;101607.25;5025081;28;20378;-88
2022/02/25 01:21:23;;;;;;;2.17;0.55;;;;;;;1.42;100.00;101626.19;5059703;28;20029;-90
2022/02/25 01:23:49;;;;;;;0.40;0.40;;;;;;;1.49;100.00;101635.47;5057110;28;20037;-89
2022/02/25 01:26:15;;;;;;;0.40;0.40;;;;;;;1.42;100.00;101623.53;5029261;28;20482;-89
2022/02/25 01:28:40;;;;;;;0.40;0.40;;;;;;;1.61;100.00;101658.53;5055015;28;20094;-88
2022/02/25 01:31:06;;;;;;;1.42;0.50;;;;;;;1.88;100.00;101673.66;5044023;28;20415;-89
2022/02/25 01:33:32;;;;;;;4.20;1.38;;;;;;;2.18;100.00;101644.31;5047201;28;20028;-92
2022/02/25 01:35:58;;;;;;;9.60;1.58;;;;;;;2.41;100.00;101650.78;5056751;28;20039;-90
2022/02/25 01:38:23;;;;;;;6.75;1.40;;;;;;;2.49;100.00;101639.63;5059510;28;20040;-90
2022/02/25 01:40:54;;;;;;;0.60;0.60;;;;;;;2.61;100.00;101649.44;5062890;28;20049;-88
2022/02/25 01:43:21;;;;;;;2.15;2.05;;;;;;;2.40;100.00;101655.22;5064810;28;20037;-88
2022/02/25 01:45:47;;;;;;;0.40;0.40;;;;;;;2.18;100.00;101661.09;5066312;28;20028;-89
2022/02/25 01:48:13;;;;;;;0.40;0.40;;;;;;;1.91;100.00;101670.81;5051990;28;20739;-86
2022/02/25 01:50:38;;;;;;;0.47;0.47;;;;;;;1.67;100.00;101663.47;5049958;28;20041;-88
2022/02/25 01:53:06;;;;;;;0.40;0.40;;;;;;;1.48;100.00;101674.38;5066635;28;20076;-89
2022/02/25 01:55:33;;;;;;;0.40;0.40;;;;;;;1.38;100.00;101686.47;5036246;28;20090;-89
2022/02/25 01:57:59;;;;;;;0.50;0.50;;;;;;;1.14;100.00;101680.88;5066428;28;20063;-88
2022/02/25 02:00:25;;;;;;;0.40;0.40;;;;;;;1.00;100.00;101696.72;5049835;28;20052;-90
2022/02/25 02:02:53;;;;;;;0.40;0.40;;;;;;;0.88;100.00;101688.56;5052860;28;20044;-89
2022/02/25 02:05:19;;;;;;;0.40;0.40;;;;;;;1.00;100.00;101691.41;5036941;28;20588;-88
2022/02/25 02:07:45;;;;;;;0.40;0.40;;;;;;;1.06;100.00;101681.31;5065004;28;20428;-88
2022/02/25 02:10:11;;;;;;;0.40;0.40;;;;;;;1.49;100.00;101715.81;5034300;28;20059;-91
2022/02/25 02:12:37;;;;;;;0.40;0.40;;;;;;;1.61;100.00;101722.16;5061858;28;20024;-88
2022/02/25 02:15:04;;;;;;;0.40;0.40;;;;;;;1.71;100.00;101704.72;5030619;28;20655;-90
2022/02/25 02:17:33;;;;;;;0.40;0.40;;;;;;;1.68;100.00;101701.44;5046160;28;20044;-90
2022/02/25 02:20:01;;;;;;;0.40;0.40;;;;;;;1.40;100.00;101679.25;5048611;28;20042;-88
2022/02/25 02:22:27;;;;;;;0.43;0.43;;;;;;;1.27;100.00;101683.59;5032623;28;20043;-90
2022/02/25 02:24:53;;;;;;;0.40;0.40;;;;;;;1.09;100.00;101682.94;5032439;28;20029;-88
2022/02/25 02:27:19;;;;;;;0.40;0.40;;;;;;;1.04;100.00;101690.31;5049778;28;20428;-88
2022/02/25 02:29:45;;;;;;;0.40;0.40;;;;;;;1.00;100.00;101686.97;5035380;28;20141;-89
2022/02/25 02:32:10;;;;;;;0.40;0.40;;;;;;;1.00;100.00;101681.66;5030466;28;20063;-87
2022/02/25 02:34:38;;;;;;;0.40;0.40;;;;;;;0.88;100.00;101672.66;5055008;28;20048;-87
2022/02/25 02:37:07;;;;;;;0.50;0.50;;;;;;;0.87;100.00;101685.97;5058314;28;20494;-89
2022/02/25 02:39:34;;;;;;;0.40;0.40;;;;;;;1.04;100.00;101706.19;5055665;28;20545;-88
2022/02/25 02:41:59;;;;;;;0.40;0.40;;;;;;;1.02;100.00;101711.56;5057549;28;20043;-90
2022/02/25 02:44:25;;;;;;;0.40;0.40;;;;;;;1.03;100.00;101709.75;5027998;28;20036;-89
2022/02/25 02:46:51;;;;;;;0.50;0.50;;;;;;;0.97;100.00;101707.50;5045828;28;20167;-87
2022/02/25 02:49:16;;;;;;;0.40;0.40;;;;;;;0.80;100.00;101698.75;5046062;28;20043;-90
2022/02/25 02:51:42;;;;;;;0.40;0.40;;;;;;;0.81;100.00;101715.47;5029190;28;20406;-89
2022/02/25 02:54:08;;;;;;;0.50;0.50;;;;;;;0.87;100.00;101708.03;5046081;28;20037;-89
2022/02/25 02:56:34;;;;;;;0.50;0.50;;;;;;;0.87;100.00;101713.34;5042759;28;20043;-88
2022/02/25 02:58:59;;;;;;;0.50;0.50;;;;;;;0.84;100.00;101721.44;5049219;28;20040;-89
2022/02/25 03:01:27;;;;;;;0.50;0.50;;;;;;;0.87;100.00;101713.34;5048979;28;20032;-87
2022/02/25 03:03:53;;;;;;;0.40;0.40;;;;;;;1.04;100.00;101719.44;5074156;28;20020;-89
2022/02/25 03:06:19;;;;;;;0.40;0.40;;;;;;;1.06;100.00;101702.50;5049250;28;20032;-88
2022/02/25 03:08:45;;;;;;;0.50;0.50;;;;;;;1.21;100.00;101724.56;5046626;28;20040;-87
2022/02/25 03:11:11;;;;;;;0.40;0.40;;;;;;;1.14;100.00;101727.66;5068088;28;20082;-89
2022/02/25 03:13:37;;;;;;;0.50;0.50;;;;;;;1.00;100.00;101724.03;5045701;28;20033;-88
2022/02/25 03:16:03;;;;;;;0.40;0.40;;;;;;;1.08;100.00;101736.84;5049816;28;20040;-90
2022/02/25 03:18:28;;;;;;;0.50;0.50;;;;;;;1.00;100.00;101745.22;5044990;28;20085;-89
2022/02/25 03:20:54;;;;;;;0.40;0.40;;;;;;;0.88;100.00;101741.50;5066061;28;20436;-89
2022/02/25 03:23:19;;;;;;;0.40;0.40;;;;;;;0.88;100.00;101735.38;5059017;28;20345;-89
2022/02/25 03:25:45;;;;;;;0.50;0.50;;;;;;;0.86;100.00;101746.03;5047296;28;20024;-89
2022/02/25 03:28:11;;;;;;;0.40;0.40;;;;;;;0.88;100.00;101745.97;5028624;28;20081;-89
2022/02/25 03:30:36;;;;;;;0.73;0.73;;;;;;;1.03;100.00;101744.19;5044477;28;20371;-89
2022/02/25 03:33:02;;;;;;;0.40;0.40;;;;;;;0.97;100.00;101745.41;5046800;28;20036;-89
2022/02/25 03:35:28;;;;;;;0.40;0.40;;;;;;;0.90;100.00;101752.03;5047477;28;20048;-87
2022/02/25 03:37:54;;;;;;;0.40;0.40;;;;;;;0.85;100.00;101751.44;5043479;28;20119;-89
2022/02/25 03:40:19;;;;;;;0.50;0.50;;;;;;;0.72;100.00;101730.09;5031664;28;20032;-90
2022/02/25 03:42:45;;;;;;;0.50;0.50;;;;;;;0.76;100.00;101747.50;5028788;28;20475;-89
2022/02/25 03:45:12;;;;;;;0.45;0.45;;;;;;;0.67;100.00;101744.56;5050308;28;20036;-89
2022/02/25 03:47:38;;;;;;;0.43;0.43;;;;;;;0.60;100.00;101750.16;5065879;28;20062;-89
2022/02/25 03:50:04;;;;;;;0.40;0.40;;;;;;;0.53;100.00;101742.66;5049150;28;20340;-90
2022/02/25 03:52:30;;;;;;;0.50;0.50;;;;;;;0.51;100.00;101742.78;5050086;28;20032;-86
2022/02/25 03:54:56;;;;;;;0.40;0.40;;;;;;;0.41;100.00;101747.72;5059760;28;20040;-89
2022/02/25 03:57:21;;;;;;;0.40;0.40;;;;;;;0.42;100.00;101762.69;5050994;28;20037;-90
2022/02/25 03:59:47;;;;;;;0.50;0.50;;;;;;;0.43;100.00;101774.94;5054795;28;20041;-90
2022/02/25 04:02:13;;;;;;;0.40;0.40;;;;;;;0.36;100.00;101773.56;5051701;28;20174;-90
2022/02/25 04:04:38;;;;;;;0.75;0.75;;;;;;;0.11;100.00;101741.50;5035981;28;20041;-90
2022/02/25 04:07:05;;;;;;;0.40;0.40;;;;;;;0.27;100.00;101760.03;5048737;28;20033;-89
2022/02/25 04:09:30;;;;;;;0.47;0.47;;;;;;;0.22;100.00;101752.34;5048382;28;20044;-89
2022/02/25 04:11:56;;;;;;;0.50;0.50;;;;;;;0.38;100.00;101771.72;5048856;28;20035;-89
2022/02/25 04:14:22;;;;;;;0.50;0.50;;;;;;;0.51;100.00;101763.09;5061965;28;20029;-90
2022/02/25 04:16:49;;;;;;;1.95;0.77;;;;;;;0.61;100.00;101762.47;5035592;28;20040;-90
2022/02/25 04:19:15;;;;;;;0.50;0.50;;;;;;;0.56;100.00;101724.84;5050472;28;20032;-90
2022/02/25 04:21:42;;;;;;;1.17;0.93;;;;;;;1.01;100.00;101768.13;5049237;28;20029;-90
2022/02/25 04:24:08;;;;;;;0.57;0.57;;;;;;;1.13;100.00;101777.16;5049668;28;20071;-90
2022/02/25 04:26:33;;;;;;;1.05;0.90;;;;;;;1.18;100.00;101771.59;5049500;28;20051;-89
2022/02/25 04:28:59;;;;;;;0.88;0.88;;;;;;;1.21;100.00;101769.59;5063398;28;20386;-90
2022/02/25 04:31:25;;;;;;;0.50;0.50;;;;;;;1.09;100.00;101765.03;5060177;28;20048;-86
2022/02/25 04:33:51;;;;;;;0.93;0.93;;;;;;;0.94;100.00;101776.53;5048666;28;20210;-89
2022/02/25 04:36:17;;;;;;;0.65;0.65;;;;;;;0.72;100.00;101753.94;5053293;28;20036;-90
2022/02/25 04:38:45;;;;;;;0.50;0.50;;;;;;;0.66;100.00;101780.72;5046060;28;20039;-90
2022/02/25 04:41:11;;;;;;;5.68;1.67;;;;;;;0.47;100.00;101793.28;5059855;28;20312;-90
2022/02/25 04:43:37;;;;;;;3.15;2.30;;;;;;;0.20;100.00;101791.22;5064484;28;20059;-90
2022/02/25 04:46:02;;;;;;;0.52;0.52;;;;;;;-0.01;100.00;101787.97;5052499;28;20531;-89
2022/02/25 04:48:28;;;;;;;0.63;0.63;;;;;;;-0.03;100.00;101806.56;5045324;28;20098;-88
2022/02/25 04:50:54;;;;;;;1.70;1.60;;;;;;;0.04;100.00;101822.94;5043429;28;20043;-90
2022/02/25 04:53:20;;;;;;;1.05;1.05;;;;;;;0.01;100.00;101827.56;5035022;28;20060;-88
2022/02/25 04:55:46;;;;;;;0.95;0.95;;;;;;;-0.29;100.00;101809.69;5062327;28;20055;-89
2022/02/25 04:58:16;;;;;;;0.60;0.60;;;;;;;-0.32;100.00;101815.16;5089190;28;20032;-90
2022/02/25 05:00:42;;;;;;;0.73;0.73;;;;;;;-0.09;100.00;101843.88;5057388;28;20045;-91
2022/02/25 05:03:08;;;;;;;6.00;1.65;;;;;;;0.04;100.00;101848.53;5063676;28;20036;-91
2022/02/25 05:05:34;;;;;;;2.00;1.45;;;;;;;0.14;100.00;101855.03;5048941;28;20073;-91
2022/02/25 05:08:00;;;;;;;1.05;1.05;;;;;;;0.13;100.00;101854.19;5029592;28;20056;-91
2022/02/25 05:10:29;;;;;;;0.60;0.60;;;;;;;-0.04;100.00;101814.56;5060412;28;20029;-89
2022/02/25 05:12:55;;;;;;;1.98;1.30;;;;;;;0.22;100.00;101848.41;5068161;28;20032;-89
2022/02/25 05:20:49;;;;;;;2.65;1.33;;;;;;;0.33;100.00;101861.06;5048391;28;20039;-90
2022/02/25 05:23:15;;;;;;;4.97;1.20;;;;;;;0.10;100.00;101837.63;5055443;28;20025;-89
2022/02/25 05:25:41;;;;;;;1.13;1.10;;;;;;;0.19;100.00;101871.53;5062809;28;20033;-89
2022/02/25 05:28:07;;;;;;;11.60;1.05;;;;;;;-0.04;100.00;101857.72;5033489;28;20486;-91
2022/02/25 05:30:32;;;;;;;5.03;0.93;;;;;;;-0.03;100.00;101877.94;5043730;28;20040;-90
2022/02/25 05:32:58;;;;;;;1.23;0.85;;;;;;;-0.18;100.00;101885.81;5034069;28;20040;-89
2022/02/25 05:35:24;;;;;;;1.25;1.15;;;;;;;-0.30;100.00;101888.13;5046545;28;20037;-86
2022/02/25 05:37:50;;;;;;;0.68;0.52;;;;;;;-0.56;100.00;101876.22;5060305;28;20032;-87
2022/02/25 05:40:17;;;;;;;0.70;0.70;;;;;;;-0.66;100.00;101861.81;5034563;28;20131;-90
2022/02/25 05:42:44;;;;;;;2.38;1.13;;;;;;;-0.41;100.00;101894.91;5058779;28;20033;-90
2022/02/25 05:45:10;;;;;;;3.80;0.85;;;;;;;-0.26;100.00;101900.28;5033603;28;20036;-90
2022/02/25 05:47:36;;;;;;;14.05;1.63;;;;;;;-0.34;100.00;101876.03;5049827;28;20107;-90
2022/02/25 05:50:04;;;;;;;1.52;1.42;;;;;;;-0.22;100.00;101879.81;5053936;28;20132;-89
2022/02/25 05:52:30;;;;;;;1.23;1.23;;;;;;;-0.11;100.00;101890.69;5064573;28;20032;-91
2022/02/25 05:54:55;;;;;;;0.80;0.80;;;;;;;-0.20;100.00;101893.81;5037379;28;20035;-90
2022/02/25 05:57:21;;;;;;;1.40;1.35;;;;;;;-0.14;100.00;101890.00;5064745;28;20088;-87
2022/02/25 05:59:47;;;;;;;0.80;0.80;;;;;;;-0.02;100.00;101906.09;5065698;28;20036;-87
2022/02/25 06:02:12;;;;;;;7.93;1.23;;;;;;;-0.08;100.00;101901.13;5063869;28;20487;-91
2022/02/25 06:04:38;;;;;;;2.42;1.77;;;;;;;-0.07;100.00;101913.41;5058808;28;20037;-88
2022/02/25 06:07:04;;;;;;;1.35;1.05;;;;;;;-0.13;100.00;101908.44;5037161;28;20043;-90
2022/02/25 06:09:30;;;;;;;1.20;1.17;;;;;;;-0.18;100.00;101902.53;5032080;28;20056;-89
2022/02/25 06:11:55;;;;;;;1.88;1.33;;;;;;;-0.13;100.00;101936.63;5063088;28;20024;-90
2022/02/25 06:14:21;;;;;;;7.88;1.67;;;;;;;-0.52;100.00;101892.81;5044494;28;20596;-89
2022/02/25 06:16:48;;;;;;;1.23;0.85;;;;;;;-0.46;100.00;101940.03;5058760;28;20032;-90
2022/02/25 06:19:14;;;;;;;2.78;1.48;;;;;;;-0.76;100.00;101916.00;5049739;28;20036;-87
2022/02/25 06:21:39;;;;;;;0.70;0.70;;;;;;;-0.77;100.00;101935.41;5048639;28;20434;-90
2022/02/25 06:24:05;;;;;;;5.18;0.73;;;;;;;-0.50;100.00;101957.84;5048480;28;20465;-91
2022/02/25 06:26:31;;;;;;;0.77;0.77;;;;;;;-0.22;100.00;101945.91;5045813;28;20025;-89
2022/02/25 06:28:57;;;;;;;1.27;1.08;;;;;;;0.10;100.00;101956.63;5031022;28;20475;-89
2022/02/25 06:31:23;;;;;;;0.70;0.70;;;;;;;0.27;100.00;101945.19;5061016;28;20503;-90
2022/02/25 06:33:48;;;;;;;1.20;0.85;;;;;;;0.44;100.00;101950.44;5033080;28;20115;-89
2022/02/25 06:36:14;;;;;;;1.40;1.30;;;;;;;0.59;100.00;101968.16;5028088;28;20227;-89
2022/02/25 06:38:40;;;;;;;2.35;1.45;;;;;;;0.58;100.00;101966.47;5060726;28;20063;-89
2022/02/25 06:41:06;;;;;;;1.95;1.45;;;;;;;0.41;100.00;101962.03;5067683;28;20144;-89
2022/02/25 06:43:32;;;;;;;3.92;1.50;;;;;;;0.18;100.00;101965.88;5066259;28;20052;-88
2022/02/25 06:45:58;;;;;;;1.02;0.80;;;;;;;0.14;100.00;101982.84;5046345;28;20067;-90
2022/02/25 06:48:23;;;;;;;74.72;22.42;;;;;;;-0.03;100.00;101970.50;5071571;28;20036;-89
2022/02/25 06:50:49;;;;;;;30.00;13.52;;;;;;;0.05;100.00;101988.59;5051097;28;20065;-89
2022/02/25 06:53:15;;;;;;;9.43;5.10;;;;;;;0.13;100.00;101985.56;5068724;28;20032;-87
2022/02/25 06:55:41;;;;;;;17.70;3.83;;;;;;;0.26;100.00;101999.00;5050592;28;20060;-90
2022/02/25 06:58:07;;;;;;;6.28;2.25;;;;;;;0.34;100.00;101997.69;5053836;28;20125;-87
2022/02/25 07:00:37;;;;;;;9.63;1.50;;;;;;;0.44;100.00;101996.28;5056557;28;20498;-88
2022/02/25 07:03:04;;;;;;;4.45;2.20;;;;;;;0.46;100.00;101977.69;5049696;28;20682;-87
2022/02/25 07:05:32;;;;;;;8.65;4.28;;;;;;;0.31;100.00;101947.56;5042133;28;20056;-91
2022/02/25 07:07:58;;;;;;;10.20;5.65;;;;;;;0.57;100.00;101974.47;5066404;28;20055;-89
2022/02/25 07:10:24;;;;;;;9.68;3.95;;;;;;;0.70;100.00;101978.16;5068706;28;20474;-86
2022/02/25 07:12:49;;;;;;;11.63;4.35;;;;;;;0.88;100.00;102003.66;5044015;28;20415;-89
2022/02/25 07:15:15;;;;;;;5.10;2.40;;;;;;;0.90;100.00;101986.81;5060002;28;20040;-88
2022/02/25 07:17:41;;;;;;;4.47;1.85;;;;;;;1.03;100.00;101979.91;5043714;28;20036;-90
2022/02/25 07:20:08;;;;;;;5.40;1.13;;;;;;;1.24;100.00;101991.97;5060248;28;20031;-89
2022/02/25 07:22:34;;;;;;;3.10;1.00;;;;;;;1.38;100.00;101993.03;5039011;28;20644;-90
2022/02/25 07:25:00;;;;;;;3.38;1.85;;;;;;;1.48;100.00;101979.16;5042740;28;20039;-89
2022/02/25 07:27:28;;;;;;;4.13;0.90;;;;;;;1.75;100.00;101987.31;5061281;28;20058;-86
2022/02/25 07:29:54;;;;;;;5.57;1.67;;;;;;;1.87;100.00;101971.63;5052533;28;20024;-86
2022/02/25 07:32:20;;;;;;;2.97;1.67;;;;;;;2.12;100.00;101990.50;5047787;28;20041;-87
2022/02/25 07:34:46;;;;;;;0.93;0.88;;;;;;;2.16;100.00;101975.22;5049562;28;20032;-87
2022/02/25 07:37:11;;;;;;;0.50;0.50;;;;;;;2.35;100.00;101988.25;5049789;28;20032;-87
2022/02/25 07:39:37;;;;;;;1.17;1.08;;;;;;;2.41;100.00;101979.94;5070058;28;20107;-87
2022/02/25 07:42:03;;;;;;;1.70;1.48;;;;;;;2.46;100.00;101977.84;5058904;28;20119;-87
2022/02/25 07:44:29;;;;;;;7.63;1.80;;;;;;;2.69;100.00;101994.16;5044327;28;20094;-87
2022/02/25 07:46:54;;;;;;;4.07;2.60;;;;;;;2.76;100.00;101993.69;5058703;28;20044;-88
2022/02/25 07:49:20;;;;;;;1.52;1.05;;;;;;;2.83;100.00;101994.16;5045239;28;20033;-90
2022/02/25 07:51:52;;;;;;;0.55;0.55;;;;;;;2.93;100.00;102003.25;5059230;28;20034;-89
2022/02/25 07:54:19;;;;;;;1.58;0.85;;;;;;;3.08;100.00;102006.78;5041626;28;20040;-87
2022/02/25 07:56:45;;;;;;;0.80;0.80;;;;;;;3.16;100.00;102000.97;5047055;28;20308;-88
2022/02/25 07:59:16;;;;;;;4.85;1.92;;;;;;;3.05;100.00;101973.28;5044091;28;20075;-90
2022/02/25 08:01:42;;;;;;;4.22;1.77;;;;;;;2.92;100.00;101951.09;5051477;28;20547;-86
2022/02/25 08:04:08;;;;;;;8.70;2.00;;;;;;;3.14;100.00;101989.56;5049611;28;20547;-88
2022/02/25 08:06:37;;;;;;;18.40;3.83;;;;;;;3.36;100.00;102016.50;5032458;28;20144;-88
2022/02/25 08:09:04;;;;;;;3.75;2.00;;;;;;;3.46;100.00;102014.94;5046810;28;20025;-92
2022/02/25 08:11:35;;;;;;;7.38;2.17;;;;;;;3.62;100.00;102016.63;5039578;28;20037;-88
2022/02/25 08:14:03;;;;;;;11.55;2.80;;;;;;;3.78;100.00;102025.28;5050583;28;20028;-91
2022/02/25 08:16:29;;;;;;;11.35;2.70;;;;;;;3.86;100.00;102024.78;5027762;28;20128;-92
2022/02/25 08:18:55;;;;;;;9.43;2.42;;;;;;;3.92;100.00;102027.91;5047941;28;20459;-90
2022/02/25 08:21:21;;;;;;;6.80;2.90;;;;;;;4.01;100.00;102029.09;5029295;28;20048;-90
2022/02/25 08:23:46;;;;;;;13.20;3.55;;;;;;;4.17;100.00;102048.41;5031211;28;20036;-87
2022/02/25 08:26:12;;;;;;;2.47;0.73;;;;;;;4.22;100.00;102039.28;5044617;28;20108;-89
2022/02/25 08:28:37;;;;;;;1.08;1.00;;;;;;;4.29;100.00;102028.13;5046318;28;20036;-91
2022/02/25 08:31:11;;;;;;;18.48;5.80;;;;;;;4.32;100.00;102027.91;5041179;28;20071;-91
2022/02/25 08:33:40;;;;;;;16.05;3.63;;;;;;;4.48;100.00;102032.19;5060515;28;20386;-90
2022/02/25 08:36:06;;;;;;;13.73;5.10;;;;;;;4.57;100.00;102042.22;5032151;28;20471;-90
2022/02/25 08:38:32;;;;;;;8.15;3.10;;;;;;;4.71;100.00;102058.13;5062236;28;20047;-92
2022/02/25 08:41:01;;;;;;;14.95;3.40;;;;;;;4.80;100.00;102049.47;5047926;28;20119;-88
2022/02/25 08:43:27;;;;;;;19.33;3.67;;;;;;;4.95;100.00;102041.34;5053983;28;20094;-90
2022/02/25 08:45:53;;;;;;;8.27;2.90;;;;;;;5.73;100.00;102065.09;5085281;28;20470;-87
2022/02/25 08:48:19;;;;;;;7.22;3.03;;;;;;;5.59;100.00;102050.09;5051847;28;20144;-91
2022/02/25 08:50:45;;;;;;;24.08;6.57;;;;;;;5.58;100.00;102055.53;5065717;28;20478;-90
2022/02/25 08:53:11;;;;;;;24.60;9.65;;;;;;;5.46;100.00;102055.47;5065860;28;20028;-91
2022/02/25 08:55:37;;;;;;;12.50;5.57;;;;;;;5.45;100.00;102051.09;5067686;28;20375;-91
2022/02/25 08:58:02;;;;;;;9.20;4.72;;;;;;;5.60;100.00;102051.78;5051295;28;20021;-90
2022/02/25 09:00:29;;;;;;;12.38;3.97;;;;;;;5.67;100.00;102039.72;5065824;28;21933;-88
2022/02/25 09:02:55;;;;;;;16.77;4.50;;;;;;;6.01;100.00;102037.25;5068479;28;20072;-89
2022/02/25 09:05:21;;;;;;;21.92;4.38;;;;;;;6.38;100.00;102061.19;5069990;28;20474;-89
2022/02/25 09:07:50;;;;;;;13.65;4.05;;;;;;;6.18;100.00;102056.50;5064191;28;20367;-90
2022/02/25 09:10:17;;;;;;;26.85;7.35;;;;;;;5.91;100.00;102037.03;5067602;28;20121;-90
2022/02/25 09:12:43;;;;;;;16.42;4.22;;;;;;;5.94;100.00;102060.88;5065970;28;20032;-90
2022/02/25 09:15:12;;;;;;;15.98;4.82;;;;;;;6.11;100.00;102059.63;5048090;28;20036;-89
2022/02/25 09:17:38;;;;;;;9.40;3.10;;;;;;;8.40;100.00;102064.69;5060019;28;20437;-89
2022/02/25 09:20:06;;;;;;;12.90;3.28;;;;;;;10.51;92.45;102078.13;5032954;28;20380;-93
2022/02/25 09:22:35;;;;;;;22.80;6.28;;;;;;;11.99;85.57;102063.94;5066450;28;20036;-88
2022/02/25 09:25:01;;;;;;;18.30;5.68;;;;;;;12.88;81.40;102057.56;5048089;28;20429;-90
2022/02/25 09:27:28;;;;;;;20.30;4.97;;;;;;;13.79;78.43;102071.38;5034017;28;20479;-87
2022/02/25 09:29:53;;;;;;;15.65;4.50;;;;;;;14.27;76.73;102071.63;5051998;28;20130;-92
2022/02/25 09:32:21;;;;;;;15.43;5.43;;;;;;;14.82;74.51;102054.69;5052540;28;20538;-93
2022/02/25 09:34:48;;;;;;;11.30;3.60;;;;;;;14.96;73.04;102042.31;5049325;28;20033;-88
2022/02/25 09:37:14;;;;;;;3.05;1.73;;;;;;;15.17;72.24;102060.69;5052245;28;20036;-88
2022/02/25 09:39:39;;;;;;;10.65;2.60;;;;;;;13.39;76.81;102050.47;5037142;28;20040;-89
2022/02/25 09:42:07;;;;;;;16.73;4.10;;;;;;;13.09;80.25;102028.31;5035971;28;20050;-91
2022/02/25 09:44:34;;;;;;;13.70;2.72;;;;;;;12.12;83.92;102048.25;5064544;28;20136;-91
2022/02/25 09:47:00;;;;;;;17.27;4.13;;;;;;;12.40;83.64;102056.22;5052942;28;20036;-89
2022/02/25 09:49:29;;;;;;;13.50;3.67;;;;;;;12.63;83.06;102049.31;5044067;28;20510;-84
2022/02/25 09:51:56;;;;;;;20.92;5.43;;;;;;;12.76;82.73;102051.59;5064210;28;20586;-83
2022/02/25 09:54:22;;;;;;;15.77;4.47;;;;;;;12.89;83.29;102056.59;5065614;28;20133;-83
2022/02/25 09:56:49;;;;;;;17.92;3.63;;;;;;;13.10;82.05;102057.03;5069053;28;20025;-83
2022/02/25 09:59:16;;;;;;;10.40;3.95;;;;;;;12.63;83.01;102057.41;5052244;28;20051;-83
2022/02/25 10:01:42;;;;;;;16.05;3.08;;;;;;;11.83;86.51;102053.81;5050025;28;20035;-83
2022/02/25 10:04:13;;;;;;;14.43;4.18;;;;;;;11.04;90.04;102059.75;5067441;28;20465;-83
2022/02/25 10:06:39;;;;;;;6.50;2.38;;;;;;;10.51;92.66;102051.22;5051161;28;20093;-82
2022/02/25 10:09:33;;;;;;;23.88;5.30;;;;;;;10.58;93.93;102051.50;5050131;28;20128;-83
2022/02/25 10:12:02;;;;;;;7.25;3.33;;;;;;;10.51;93.89;102051.22;5043260;28;20037;-83
2022/02/25 10:14:38;;;;;;;16.20;2.60;;;;;;;10.65;94.11;102049.09;5071030;28;20059;-83
2022/02/25 10:17:06;;;;;;;17.52;3.83;;;;;;;11.79;90.17;102041.63;5052531;28;20527;-83
2022/02/25 10:19:31;;;;;;;8.95;3.45;;;;;;;12.43;87.71;102047.81;5069639;28;20029;-84
2022/02/25 10:22:13;;;;;;;10.52;2.72;;;;;;;12.33;87.85;102055.97;5052340;28;20032;-84
2022/02/25 10:24:47;;;;;;;15.73;3.08;;;;;;;11.91;87.85;102029.69;5069710;28;20124;-83
2022/02/25 10:27:40;;;;;;;12.38;3.78;;;;;;;11.40;89.49;102031.94;5068687;28;20058;-84
2022/02/25 10:30:14;;;;;;;6.47;2.67;;;;;;;11.24;90.59;102050.56;5091606;28;20061;-83
2022/02/25 10:32:44;;;;;;;6.82;2.45;;;;;;;11.20;91.37;102062.66;5051227;28;20078;-83
2022/02/25 10:35:36;;;;;;;12.10;3.33;;;;;;;12.40;86.66;102053.53;5050395;28;20387;-83
2022/02/25 10:38:15;;;;;;;12.30;3.03;;;;;;;14.34;78.37;102071.78;5050005;28;20024;-84
2022/02/25 10:40:49;;;;;;;10.85;3.15;;;;;;;15.58;73.37;102063.22;5049557;28;20040;-84
2022/02/25 10:43:17;;;;;;;10.38;3.78;;;;;;;16.08;72.20;102048.38;5052027;28;20367;-84
2022/02/25 10:45:45;;;;;;;9.07;2.97;;;;;;;16.11;71.91;102049.88;5069537;28;20094;-83
2022/02/25 10:48:16;;;;;;;10.95;3.58;;;;;;;15.74;71.65;102044.19;5064657;28;20252;-84
2022/02/25 10:50:48;;;;;;;8.43;3.08;;;;;;;16.48;70.08;102058.09;5036259;28;20032;-86
2022/02/25 10:53:16;;;;;;;7.38;2.50;;;;;;;16.34;70.65;102058.88;5051527;28;20036;-84
2022/02/25 10:55:42;;;;;;;7.93;3.08;;;;;;;16.22;71.16;102049.47;5031887;28;20040;-83
2022/02/25 10:58:08;;;;;;;13.95;3.60;;;;;;;15.85;71.80;102064.66;5068761;28;20024;-84
2022/02/25 11:00:34;;;;;;;13.52;4.22;;;;;;;15.84;72.00;102060.25;5051164;28;20033;-84
2022/02/25 11:03:00;;;;;;;6.65;2.97;;;;;;;16.06;71.54;102053.13;5037507;28;20410;-85
2022/02/25 11:05:34;;;;;;;11.23;2.33;;;;;;;16.74;69.46;102047.81;5036302;28;20032;-83
2022/02/25 11:08:02;;;;;;;5.18;2.40;;;;;;;16.54;69.48;102048.38;5050927;28;20035;-84
2022/02/25 11:10:32;;;;;;;14.77;2.60;;;;;;;16.65;70.33;102050.63;5062453;28;20040;-84
2022/02/25 11:13:12;;;;;;;4.88;2.72;;;;;;;16.66;69.58;102059.59;5027023;28;20040;-84
2022/02/25 11:15:42;;;;;;;16.42;3.55;;;;;;;16.51;70.62;102048.69;5064976;28;20112;-84
2022/02/25 11:18:09;;;;;;;9.35;2.60;;;;;;;16.64;68.79;102070.66;5050542;28;20029;-84
2022/02/25 11:20:36;;;;;;;9.07;4.13;;;;;;;16.40;67.92;102060.84;5051848;28;20482;-84
2022/02/25 11:23:10;;;;;;;14.73;3.85;;;;;;;16.67;67.86;102064.88;5052581;28;20028;-83
2022/02/25 11:25:37;;;;;;;12.52;3.08;;;;;;;17.05;65.67;102066.72;5068035;28;20697;-83